createdAt,value
2019-02-18T00:01:21.014Z,78075.64
2019-02-18T00:03:52.281Z,78041.45
2019-02-18T00:06:23.536Z,78043.47
2019-02-18T00:08:54.842Z,78058.55
2019-02-18T00:11:26.080Z,78062.57
2019-02-18T00:13:57.329Z,78055.53
2019-02-18T00:16:28.518Z,78078.66
2019-02-18T00:18:59.808Z,78063.58
2019-02-18T00:21:31.018Z,78069.61
2019-02-18T00:24:02.272Z,78075.64
2019-02-18T00:26:33.580Z,78052.52
2019-02-18T00:29:04.828Z,78064.58
2019-02-18T00:31:36.060Z,78086.70
2019-02-18T00:34:07.312Z,78094.75
2019-02-18T00:36:38.707Z,78077.66
2019-02-18T00:39:10.002Z,78077.66
2019-02-18T00:41:41.264Z,78090.72
2019-02-18T00:44:12.516Z,78102.80
2019-02-18T00:46:46.640Z,78113.85
2019-02-18T00:49:17.834Z,78091.73
2019-02-18T00:51:49.133Z,78104.80
2019-02-18T00:54:20.371Z,78110.84
2019-02-18T00:56:51.662Z,78126.92
2019-02-18T00:59:25.629Z,78092.73
2019-02-18T01:01:57.034Z,78066.59
2019-02-18T01:04:28.269Z,78104.80
2019-02-18T01:06:59.672Z,78094.75
2019-02-18T01:09:30.813Z,78059.55
2019-02-18T01:12:02.130Z,78058.55
2019-02-18T01:14:33.797Z,78098.77
2019-02-18T01:17:05.103Z,78118.88
2019-02-18T01:19:36.366Z,78124.91
2019-02-18T01:22:07.530Z,78130.95
2019-02-18T01:24:38.880Z,78128.94
2019-02-18T01:27:10.116Z,78110.84
2019-02-18T01:29:41.410Z,78125.92
2019-02-18T01:32:12.555Z,78125.92
2019-02-18T01:34:43.803Z,78129.94
2019-02-18T01:37:15.001Z,78140.00
2019-02-18T01:39:46.268Z,78136.98
2019-02-18T01:42:17.497Z,78117.88
2019-02-18T01:44:48.776Z,78123.91
2019-02-18T01:47:20.039Z,78143.02
2019-02-18T01:49:51.339Z,78156.08
2019-02-18T01:52:22.536Z,78167.14
2019-02-18T01:54:53.790Z,78173.18
2019-02-18T01:57:25.136Z,78183.23
2019-02-18T01:59:56.395Z,78182.23
2019-02-18T02:02:27.653Z,78159.10
2019-02-18T02:04:58.970Z,78185.24
2019-02-18T02:07:55.707Z,78182.23
2019-02-18T02:10:21.903Z,78158.09
2019-02-18T02:12:54.626Z,78155.08
2019-02-18T02:15:28.117Z,78166.14
2019-02-18T02:17:59.360Z,78171.17
2019-02-18T02:20:30.508Z,78197.31
2019-02-18T02:23:01.743Z,78149.05
2019-02-18T02:25:33.002Z,78148.04
2019-02-18T02:28:04.263Z,78184.23
2019-02-18T02:30:35.477Z,78193.29
2019-02-18T02:33:06.698Z,78183.23
2019-02-18T02:35:38.245Z,78196.30
2019-02-18T02:38:09.533Z,78175.19
2019-02-18T02:40:40.736Z,78200.33
2019-02-18T02:43:11.926Z,78213.41
2019-02-18T02:45:43.137Z,78169.16
2019-02-18T02:48:14.474Z,78175.19
2019-02-18T02:50:45.744Z,78196.30
2019-02-18T02:53:16.973Z,78196.30
2019-02-18T02:55:48.634Z,78173.18
2019-02-18T02:58:19.783Z,78193.29
2019-02-18T03:00:51.133Z,78200.33
2019-02-18T03:03:22.377Z,78186.25
2019-02-18T03:05:53.618Z,78192.28
2019-02-18T03:08:24.814Z,78188.27
2019-02-18T03:10:56.429Z,78167.14
2019-02-18T03:13:27.697Z,78202.34
2019-02-18T03:16:17.927Z,78188.27
2019-02-18T03:18:49.219Z,78177.20
2019-02-18T03:21:20.577Z,78205.36
2019-02-18T03:23:51.845Z,78170.16
2019-02-18T03:26:23.099Z,78149.05
2019-02-18T03:29:58.013Z,78171.17
2019-02-18T03:32:31.955Z,78184.23
2019-02-18T03:35:03.104Z,78170.16
2019-02-18T03:37:34.402Z,78202.34
2019-02-18T03:40:05.865Z,78201.33
2019-02-18T03:42:37.127Z,78228.48
2019-02-18T03:45:08.418Z,78250.61
2019-02-18T03:47:39.646Z,78260.66
2019-02-18T03:50:10.993Z,78276.75
2019-02-18T03:52:42.270Z,78271.72
2019-02-18T03:55:13.472Z,78268.70
2019-02-18T03:57:44.747Z,78272.73
2019-02-18T04:00:16.105Z,78276.75
2019-02-18T04:02:47.325Z,78289.83
2019-02-18T04:05:18.600Z,78281.78
2019-02-18T04:07:49.859Z,78279.77
2019-02-18T04:10:21.144Z,78298.88
2019-02-18T04:12:52.319Z,78301.89
2019-02-18T04:15:23.596Z,78299.88
2019-02-18T04:17:54.803Z,78304.91
2019-02-18T04:20:26.088Z,78293.84
2019-02-18T04:22:57.303Z,78271.72
2019-02-18T04:25:47.467Z,78256.64
2019-02-18T04:28:18.735Z,78219.44
2019-02-18T04:30:50.081Z,78252.62
2019-02-18T04:33:21.337Z,78273.73
2019-02-18T04:35:52.596Z,78269.71
2019-02-18T04:38:23.864Z,78261.67
2019-02-18T04:40:55.135Z,78247.59
2019-02-18T04:43:26.309Z,78272.73
2019-02-18T04:45:57.606Z,78292.84
2019-02-18T04:48:28.830Z,78301.89
2019-02-18T04:51:00.130Z,78289.83
2019-02-18T04:53:31.378Z,78311.95
2019-02-18T04:56:02.692Z,78286.81
2019-02-18T04:58:33.927Z,78288.82
2019-02-18T05:01:05.183Z,78269.71
2019-02-18T05:03:36.352Z,78294.85
2019-02-18T05:06:07.648Z,78311.95
2019-02-18T05:08:38.857Z,78318.98
2019-02-18T05:11:10.059Z,78291.84
2019-02-18T05:13:41.326Z,78305.91
2019-02-18T05:16:12.582Z,78307.92
2019-02-18T05:18:43.867Z,78319.99
2019-02-18T05:21:15.122Z,78315.97
2019-02-18T05:23:46.385Z,78328.04
2019-02-18T05:26:17.629Z,78335.08
2019-02-18T05:28:48.840Z,78334.07
2019-02-18T05:31:20.061Z,78337.09
2019-02-18T05:33:51.351Z,78339.09
2019-02-18T05:36:22.536Z,78343.13
2019-02-18T05:38:53.700Z,78342.11
2019-02-18T05:41:24.974Z,78347.14
2019-02-18T05:43:56.252Z,78349.16
2019-02-18T05:46:27.583Z,78350.16
2019-02-18T05:48:58.805Z,78348.15
2019-02-18T05:51:30.027Z,78359.21
2019-02-18T05:54:01.306Z,78371.28
2019-02-18T05:56:32.508Z,78375.30
2019-02-18T05:59:03.802Z,78372.28
2019-02-18T06:01:35.042Z,78378.31
2019-02-18T06:04:06.205Z,78372.28
2019-02-18T06:06:37.391Z,78366.25
2019-02-18T06:09:09.255Z,78359.21
2019-02-18T06:11:40.413Z,78354.19
2019-02-18T06:14:11.679Z,78347.14
2019-02-18T06:16:42.878Z,78345.13
2019-02-18T06:19:14.105Z,78354.19
2019-02-18T06:21:45.395Z,78352.17
2019-02-18T06:24:16.607Z,78338.09
2019-02-18T06:26:47.913Z,78337.09
2019-02-18T06:29:19.074Z,78340.10
2019-02-18T06:31:50.314Z,78341.11
2019-02-18T06:34:21.581Z,78342.11
2019-02-18T06:36:52.883Z,78332.06
2019-02-18T06:39:24.102Z,78342.11
2019-02-18T06:41:55.362Z,78334.07
2019-02-18T06:44:35.126Z,78309.94
2019-02-18T06:47:10.889Z,78293.84
2019-02-18T06:49:42.125Z,78247.59
2019-02-18T06:52:13.346Z,78237.53
2019-02-18T06:54:44.668Z,78251.61
2019-02-18T06:57:37.711Z,78248.59
2019-02-18T07:00:35.285Z,78239.55
2019-02-18T07:03:18.586Z,78249.60
2019-02-18T07:06:04.452Z,78273.73
2019-02-18T07:08:56.079Z,78267.70
2019-02-18T07:11:41.380Z,78279.77
2019-02-18T07:14:12.675Z,78289.83
2019-02-18T07:16:43.941Z,78280.77
2019-02-18T07:19:15.175Z,78278.77
2019-02-18T07:21:46.439Z,78265.69
2019-02-18T07:24:17.680Z,78254.63
2019-02-18T07:26:48.865Z,78215.41
2019-02-18T07:29:20.154Z,78168.16
2019-02-18T07:31:51.423Z,78126.92
2019-02-18T07:34:22.664Z,78107.81
2019-02-18T07:36:53.834Z,78124.91
2019-02-18T07:39:25.063Z,78127.93
2019-02-18T07:41:56.350Z,78097.77
2019-02-18T07:44:27.633Z,78088.71
2019-02-18T07:46:58.852Z,78082.68
2019-02-18T07:49:30.122Z,78071.62
2019-02-18T07:52:20.396Z,78057.55
2019-02-18T07:54:51.533Z,78047.48
2019-02-18T07:57:22.835Z,78025.36
2019-02-18T07:59:54.186Z,77996.20
2019-02-18T08:02:25.477Z,77946.94
2019-02-18T08:04:56.687Z,77835.33
2019-02-18T08:07:27.966Z,77718.70
2019-02-18T08:09:59.217Z,77617.16
2019-02-18T08:12:30.478Z,77527.67
2019-02-18T08:15:01.756Z,77414.07
2019-02-18T08:17:32.980Z,77328.63
2019-02-18T08:20:04.396Z,77243.17
2019-02-18T08:22:35.665Z,77133.59
2019-02-18T08:25:07.413Z,77131.59
2019-02-18T08:27:38.649Z,77058.20
2019-02-18T08:30:12.087Z,77027.04
2019-02-18T08:32:43.374Z,76983.81
2019-02-18T08:35:14.703Z,76935.56
2019-02-18T08:37:45.972Z,76887.32
2019-02-18T08:40:22.548Z,76876.27
2019-02-18T08:42:50.077Z,76831.03
2019-02-18T08:45:21.346Z,76813.94
2019-02-18T08:47:52.649Z,76802.88
2019-02-18T08:50:23.886Z,76744.59
2019-02-18T08:52:55.137Z,76710.41
2019-02-18T08:55:26.404Z,76706.39
2019-02-18T08:57:57.678Z,76682.27
2019-02-18T09:00:28.901Z,76643.07
2019-02-18T09:03:00.157Z,76710.41
2019-02-18T09:05:31.337Z,76713.42
2019-02-18T09:08:02.591Z,76694.33
2019-02-18T09:10:34.192Z,76668.20
2019-02-18T09:13:05.595Z,76629.00
2019-02-18T09:15:36.851Z,76564.67
2019-02-18T09:18:08.025Z,76560.66
2019-02-18T09:20:39.297Z,76507.38
2019-02-18T09:23:29.263Z,76494.31
2019-02-18T09:26:02.289Z,76500.34
2019-02-18T09:28:33.673Z,76495.32
2019-02-18T09:31:04.985Z,76474.22
2019-02-18T09:33:36.245Z,76495.32
2019-02-18T09:36:07.545Z,76521.45
2019-02-18T09:38:38.685Z,76573.72
2019-02-18T09:41:09.906Z,76644.08
2019-02-18T09:43:41.147Z,76712.42
2019-02-18T09:46:12.392Z,76764.69
2019-02-18T09:48:43.604Z,76795.84
2019-02-18T09:51:14.896Z,76807.91
2019-02-18T09:53:46.165Z,76840.08
2019-02-18T09:56:17.431Z,76858.17
2019-02-18T09:58:50.259Z,76862.19
2019-02-18T10:01:21.695Z,76888.33
2019-02-18T10:03:52.946Z,76866.21
2019-02-18T10:06:24.193Z,76877.27
2019-02-18T10:08:55.470Z,76864.20
2019-02-18T10:11:26.805Z,76840.08
2019-02-18T10:13:58.081Z,76850.13
2019-02-18T10:16:29.347Z,76873.25
2019-02-18T10:19:00.644Z,76876.27
2019-02-18T10:21:31.890Z,76869.23
2019-02-18T10:24:03.172Z,76870.23
2019-02-18T10:26:34.346Z,76862.19
2019-02-18T10:29:05.822Z,76825.00
2019-02-18T10:31:37.029Z,76815.95
2019-02-18T10:34:08.254Z,76819.97
2019-02-18T10:36:39.496Z,76813.94
2019-02-18T10:39:11.006Z,76821.98
2019-02-18T10:41:42.230Z,76821.98
2019-02-18T10:44:13.434Z,76826.00
2019-02-18T10:46:44.643Z,76823.99
2019-02-18T10:49:19.732Z,76810.92
2019-02-18T10:51:48.727Z,76800.88
2019-02-18T10:54:20.003Z,76786.80
2019-02-18T10:56:51.297Z,76750.62
2019-02-18T10:59:22.558Z,76771.73
2019-02-18T11:01:53.831Z,76737.55
2019-02-18T11:04:25.108Z,76738.55
2019-02-18T11:06:56.361Z,76731.52
2019-02-18T11:09:27.589Z,76727.50
2019-02-18T11:11:58.901Z,76716.44
2019-02-18T11:14:30.137Z,76710.41
2019-02-18T11:17:01.473Z,76717.45
2019-02-18T11:19:32.733Z,76696.34
2019-02-18T11:22:04.014Z,76686.29
2019-02-18T11:24:35.491Z,76685.28
2019-02-18T11:27:06.783Z,76681.27
2019-02-18T11:29:38.007Z,76665.19
2019-02-18T11:32:09.275Z,76618.95
2019-02-18T11:34:40.519Z,76634.02
2019-02-18T11:37:13.763Z,76626.98
2019-02-18T11:39:45.195Z,76645.08
2019-02-18T11:42:16.395Z,76635.03
2019-02-18T11:44:47.685Z,76619.95
2019-02-18T11:47:18.841Z,76619.95
2019-02-18T11:49:50.484Z,76604.88
2019-02-18T11:52:21.748Z,76588.80
2019-02-18T11:54:53.008Z,76589.80
2019-02-18T11:57:24.281Z,76580.75
2019-02-18T11:59:55.533Z,76573.72
2019-02-18T12:02:26.850Z,76568.70
2019-02-18T12:04:58.088Z,76540.55
2019-02-18T12:07:29.386Z,76536.53
2019-02-18T12:10:00.638Z,76527.48
2019-02-18T12:12:31.955Z,76521.45
2019-02-18T12:15:03.506Z,76513.41
2019-02-18T12:17:34.779Z,76515.42
2019-02-18T12:20:06.940Z,76511.41
2019-02-18T12:22:38.151Z,76493.31
2019-02-18T12:25:10.953Z,76498.34
2019-02-18T12:27:46.444Z,76490.30
2019-02-18T12:30:17.756Z,76471.20
2019-02-18T12:32:49.074Z,76469.19
2019-02-18T12:35:30.241Z,76466.17
2019-02-18T12:37:55.526Z,76455.13
2019-02-18T12:40:26.272Z,76452.11
2019-02-18T12:42:57.494Z,76429.99
2019-02-18T12:45:28.764Z,76440.05
2019-02-18T12:48:00.029Z,76438.03
2019-02-18T12:50:31.330Z,76435.02
2019-02-18T12:53:02.612Z,76414.92
2019-02-18T12:55:34.087Z,76406.88
2019-02-18T12:58:05.550Z,76387.78
2019-02-18T13:00:37.707Z,76394.82
2019-02-18T13:03:09.133Z,76366.68
2019-02-18T13:05:40.385Z,76357.63
2019-02-18T13:08:11.670Z,76350.59
2019-02-18T13:10:42.883Z,76350.59
2019-02-18T13:13:14.229Z,76347.58
2019-02-18T13:15:45.482Z,76340.55
2019-02-18T13:18:16.784Z,76330.50
2019-02-18T13:20:48.016Z,76329.49
2019-02-18T13:23:19.399Z,76327.48
2019-02-18T13:25:50.685Z,76323.46
2019-02-18T13:28:21.963Z,76322.45
2019-02-18T13:30:53.229Z,76306.38
2019-02-18T13:33:24.472Z,76304.37
2019-02-18T13:35:55.882Z,76301.35
2019-02-18T13:38:27.148Z,76297.33
2019-02-18T13:40:58.480Z,76297.33
2019-02-18T13:43:29.711Z,76273.21
2019-02-18T13:46:00.923Z,76281.25
2019-02-18T13:48:32.639Z,76277.23
2019-02-18T13:51:03.962Z,76259.14
2019-02-18T13:53:35.190Z,76226.98
2019-02-18T13:56:07.115Z,76247.08
2019-02-18T13:58:38.476Z,76208.89
2019-02-18T14:01:10.390Z,76200.85
2019-02-18T14:03:41.638Z,76213.92
2019-02-18T14:06:12.890Z,76233.02
2019-02-18T14:08:44.173Z,76226.98
2019-02-18T14:11:15.465Z,76234.02
2019-02-18T14:13:47.182Z,76227.98
2019-02-18T14:16:18.451Z,76211.91
2019-02-18T14:18:49.882Z,76212.91
2019-02-18T14:21:21.100Z,76239.05
2019-02-18T14:23:52.440Z,76234.02
2019-02-18T14:26:24.125Z,76208.89
2019-02-18T14:28:55.360Z,76196.83
2019-02-18T14:31:26.634Z,76227.98
2019-02-18T14:33:57.963Z,76243.06
2019-02-18T14:36:29.164Z,76250.09
2019-02-18T14:39:00.707Z,76259.14
2019-02-18T14:41:31.882Z,76262.16
2019-02-18T14:44:03.126Z,76275.22
2019-02-18T14:46:34.407Z,76258.14
2019-02-18T14:49:05.779Z,76233.02
2019-02-18T14:51:37.465Z,76246.08
2019-02-18T14:54:08.787Z,76247.08
2019-02-18T14:56:41.043Z,76268.19
2019-02-18T14:59:12.408Z,76264.17
2019-02-18T15:01:44.868Z,76264.17
2019-02-18T15:04:16.371Z,76264.17
2019-02-18T15:06:47.651Z,76272.20
2019-02-18T15:09:19.473Z,76273.21
2019-02-18T15:11:50.778Z,76269.19
2019-02-18T15:14:22.074Z,76261.16
2019-02-18T15:16:53.830Z,76258.14
2019-02-18T15:19:25.085Z,76257.13
2019-02-18T15:21:56.395Z,76272.20
2019-02-18T15:24:27.728Z,76264.17
2019-02-18T15:26:58.988Z,76280.25
2019-02-18T15:29:30.239Z,76282.26
2019-02-18T15:32:01.538Z,76263.16
2019-02-18T15:34:32.823Z,76276.23
2019-02-18T15:37:04.122Z,76274.22
2019-02-18T15:39:35.398Z,76293.31
2019-02-18T15:42:06.672Z,76320.45
2019-02-18T15:44:37.960Z,76311.41
2019-02-18T15:47:09.328Z,76306.38
2019-02-18T15:49:40.638Z,76299.34
2019-02-18T15:52:12.221Z,76298.34
2019-02-18T15:54:43.573Z,76292.30
2019-02-18T15:57:14.817Z,76297.33
2019-02-18T15:59:46.174Z,76304.37
2019-02-18T16:02:17.379Z,76306.38
2019-02-18T16:04:48.724Z,76318.44
2019-02-18T16:07:19.966Z,76335.52
2019-02-18T16:09:51.273Z,76358.64
2019-02-18T16:12:22.586Z,76383.77
2019-02-18T16:14:53.808Z,76405.88
2019-02-18T16:17:25.106Z,76431.00
2019-02-18T16:19:56.350Z,76463.16
2019-02-18T16:22:27.652Z,76483.27
2019-02-18T16:24:58.907Z,76495.32
2019-02-18T16:27:30.196Z,76521.45
2019-02-18T16:30:02.853Z,76560.66
2019-02-18T16:32:34.374Z,76586.78
2019-02-18T16:35:06.042Z,76613.92
2019-02-18T16:37:37.710Z,76634.02
2019-02-18T16:40:11.710Z,76646.09
2019-02-18T16:42:43.020Z,76656.14
2019-02-18T16:45:15.418Z,76675.23
2019-02-18T16:47:46.746Z,76693.33
2019-02-18T16:50:18.059Z,76712.42
2019-02-18T16:52:49.408Z,76719.45
2019-02-18T16:55:20.662Z,76739.56
2019-02-18T16:57:52.256Z,76760.67
2019-02-18T17:00:32.592Z,76777.76
2019-02-18T17:03:06.195Z,76794.84
2019-02-18T17:05:37.444Z,76804.89
2019-02-18T17:08:09.695Z,76790.83
2019-02-18T17:10:41.059Z,76772.73
2019-02-18T17:13:12.289Z,76757.66
2019-02-18T17:15:43.718Z,76709.41
2019-02-18T17:18:15.509Z,76697.34
2019-02-18T17:20:46.869Z,76690.31
2019-02-18T17:23:18.263Z,76695.34
2019-02-18T17:25:49.977Z,76697.34
2019-02-18T17:28:21.529Z,76683.27
2019-02-18T17:30:52.913Z,76697.34
2019-02-18T17:33:24.262Z,76666.19
2019-02-18T17:35:55.513Z,76659.16
2019-02-18T17:38:43.876Z,76687.30
2019-02-18T17:41:15.194Z,76689.30
2019-02-18T17:43:46.455Z,76682.27
2019-02-18T17:46:17.816Z,76706.39
2019-02-18T17:48:50.191Z,76744.59
2019-02-18T17:51:21.475Z,76767.70
2019-02-18T17:53:52.760Z,76790.83
2019-02-18T17:56:24.046Z,76800.88
2019-02-18T17:58:55.474Z,76802.88
2019-02-18T18:01:27.342Z,76769.72
2019-02-18T18:03:59.005Z,76774.74
2019-02-18T18:06:30.473Z,76762.68
2019-02-18T18:09:01.754Z,76789.82
2019-02-18T18:11:33.452Z,76785.80
2019-02-18T18:14:04.804Z,76782.78
2019-02-18T18:16:36.151Z,76779.77
2019-02-18T18:19:09.510Z,76799.88
2019-02-18T18:21:41.217Z,76828.02
2019-02-18T18:24:17.989Z,76829.02
2019-02-18T18:26:49.574Z,76797.86
2019-02-18T18:29:21.017Z,76791.83
2019-02-18T18:31:52.371Z,76809.92
2019-02-18T18:34:23.814Z,76833.04
2019-02-18T18:36:55.226Z,76836.05
2019-02-18T18:39:26.539Z,76856.16
2019-02-18T18:41:57.885Z,76880.28
2019-02-18T18:44:29.254Z,76899.38
2019-02-18T18:47:00.553Z,76900.39
2019-02-18T18:49:31.831Z,76923.51
2019-02-18T18:52:03.117Z,76909.44
2019-02-18T18:54:34.485Z,76904.41
2019-02-18T18:57:05.950Z,76905.41
2019-02-18T18:59:37.571Z,76913.45
2019-02-18T19:02:09.006Z,76922.50
2019-02-18T19:04:40.425Z,76920.48
2019-02-18T19:07:11.821Z,76941.59
2019-02-18T19:09:43.181Z,76948.64
2019-02-18T19:12:14.793Z,76955.67
2019-02-18T19:14:45.970Z,76954.66
2019-02-18T19:17:17.280Z,76954.66
2019-02-18T19:19:48.763Z,76951.66
2019-02-18T19:22:20.207Z,76950.64
2019-02-18T19:24:51.855Z,76966.73
2019-02-18T19:27:23.210Z,76984.82
2019-02-18T19:29:54.488Z,76973.77
2019-02-18T19:32:25.909Z,76972.77
2019-02-18T19:34:57.423Z,76981.80
2019-02-18T19:37:29.129Z,76987.84
2019-02-18T19:40:00.469Z,76989.84
2019-02-18T19:42:31.779Z,76995.88
2019-02-18T19:45:03.109Z,77009.95
2019-02-18T19:47:34.395Z,77009.95
2019-02-18T19:50:05.919Z,77023.02
2019-02-18T19:52:37.247Z,77024.02
2019-02-18T19:55:09.332Z,77028.05
2019-02-18T19:57:40.678Z,77035.08
2019-02-18T20:00:14.688Z,77041.11
2019-02-18T20:02:45.973Z,77062.22
2019-02-18T20:05:17.322Z,77093.39
2019-02-18T20:07:48.590Z,77081.33
2019-02-18T20:10:19.946Z,77084.34
2019-02-18T20:12:51.315Z,77075.29
2019-02-18T20:15:22.651Z,77071.27
2019-02-18T20:17:54.095Z,77079.31
2019-02-18T20:20:25.448Z,77081.33
2019-02-18T20:22:56.691Z,77076.30
2019-02-18T20:25:27.951Z,77080.32
2019-02-18T20:27:59.346Z,77085.34
2019-02-18T20:30:30.831Z,77076.30
2019-02-18T20:33:02.105Z,77074.28
2019-02-18T20:35:33.440Z,77064.23
2019-02-18T20:38:05.010Z,77071.27
2019-02-18T20:40:36.772Z,77087.36
2019-02-18T20:43:08.189Z,77080.32
2019-02-18T20:45:39.666Z,77094.39
2019-02-18T20:48:11.047Z,77108.47
2019-02-18T20:50:43.581Z,77119.52
2019-02-18T20:53:15.759Z,77112.48
2019-02-18T20:55:47.271Z,77105.45
2019-02-18T20:58:18.443Z,77119.52
2019-02-18T21:00:49.726Z,77127.56
2019-02-18T21:03:22.296Z,77130.58
2019-02-18T21:05:53.635Z,77152.70
2019-02-18T21:08:24.936Z,77142.64
2019-02-18T21:10:56.465Z,77158.73
2019-02-18T21:13:27.646Z,77158.73
2019-02-18T21:15:59.144Z,77165.77
2019-02-18T21:18:30.628Z,77165.77
2019-02-18T21:21:01.950Z,77174.81
2019-02-18T21:23:33.240Z,77165.77
2019-02-18T21:26:04.547Z,77157.72
2019-02-18T21:28:36.128Z,77174.81
2019-02-18T21:31:07.430Z,77180.84
2019-02-18T21:33:38.666Z,77193.91
2019-02-18T21:36:09.966Z,77174.81
2019-02-18T21:38:41.520Z,77185.87
2019-02-18T21:41:13.235Z,77187.88
2019-02-18T21:43:44.514Z,77207.98
2019-02-18T21:46:15.777Z,77216.03
2019-02-18T21:48:47.067Z,77228.09
2019-02-18T21:51:18.394Z,77245.18
2019-02-18T21:53:50.127Z,77249.20
2019-02-18T21:56:21.427Z,77238.14
2019-02-18T21:58:52.740Z,77241.16
2019-02-18T22:01:24.015Z,77234.13
2019-02-18T22:03:55.341Z,77236.13
2019-02-18T22:06:26.974Z,77246.19
2019-02-18T22:08:58.327Z,77243.17
2019-02-18T22:11:29.567Z,77258.25
2019-02-18T22:14:03.487Z,77257.24
2019-02-18T22:16:34.728Z,77238.14
2019-02-18T22:19:06.387Z,77232.11
2019-02-18T22:21:37.645Z,77250.20
2019-02-18T22:24:08.897Z,77256.23
2019-02-18T22:26:40.264Z,77264.28
2019-02-18T22:29:11.486Z,77281.38
2019-02-18T22:31:42.780Z,77288.41
2019-02-18T22:34:13.980Z,77298.45
2019-02-18T22:36:45.254Z,77274.33
2019-02-18T22:39:16.474Z,77270.31
2019-02-18T22:41:47.785Z,77284.39
2019-02-18T22:44:19.019Z,77293.44
2019-02-18T22:46:50.503Z,77299.47
2019-02-18T22:49:21.776Z,77299.47
2019-02-18T22:51:53.049Z,77303.48
2019-02-18T22:54:24.370Z,77304.49
2019-02-18T22:56:55.617Z,77304.49
2019-02-18T22:59:26.905Z,77302.48
2019-02-18T23:01:58.186Z,77306.50
2019-02-18T23:04:29.449Z,77307.51
2019-02-18T23:07:00.694Z,77308.52
2019-02-18T23:09:32.060Z,77309.52
2019-02-18T23:12:03.345Z,77319.57
2019-02-18T23:14:34.624Z,77320.58
2019-02-18T23:17:05.899Z,77303.48
2019-02-18T23:19:37.149Z,77319.57
2019-02-18T23:22:08.504Z,77312.53
2019-02-18T23:24:39.727Z,77292.42
2019-02-18T23:27:11.204Z,77289.41
2019-02-18T23:29:42.489Z,77271.31
2019-02-18T23:32:13.765Z,77260.26
2019-02-18T23:34:45.015Z,77277.35
2019-02-18T23:37:16.309Z,77275.34
2019-02-18T23:39:47.554Z,77269.30
2019-02-18T23:42:18.833Z,77262.27
2019-02-18T23:44:50.170Z,77273.33
2019-02-18T23:47:22.428Z,77279.36
2019-02-18T23:49:53.580Z,77301.48
2019-02-18T23:52:24.796Z,77311.53
2019-02-18T23:54:55.964Z,77319.57
2019-02-18T23:57:27.268Z,77324.59
2019-02-18T23:59:58.506Z,77331.64
